Kimball, Minnesota
Current Conditions -  °F | °C
As of 8:13 PM on Friday 19 Dec 2014 (Local Time) from KLJF Reporting Station
Haze Haze  
Wind Chill: -3°   Ceiling: 1500
Heat Index:   Visibility: 5mi
Dew Point: -1°   Wind: 5mph
Humidity: 93%   Direction: 150°SSE
Pressure: 30.12"   Gusts: NA
Location:  45.31°N, 94.3°W
Report Text: KLJF 200213Z AUTO 15004KT 5SM BR SCT009 OVC015 00/M01 A3012 RMK AO2
Loading
Personal Weather Stations






























Interactive Weather Map New forecast layout! Learn more

10-Day Weather Forecast

Advertisements
Track Severe Weather on mobile